Time;durP1;ratioP1;P1;durP2;ratioP2;P2;SDS_P1;SDS_P2;PMS_P1;PMS_P2;Temp;Humidity;BMP_temperature;BMP_pressure;BME280_temperature;BME280_humidity;BME280_pressure;Samples;Min_cycle;Max_cycle;Signal;HPM_P1;HPM_P2
2021/12/13 00:00:41;;;;;;;20.27;9.65;;;;;;;;;;5084762;28;20057;-81
2021/12/13 00:03:13;;;;;;;39.85;9.52;;;;;;;;;;5103161;28;20077;-81
2021/12/13 00:05:39;;;;;;;25.58;9.20;;;;;;;;;;5103190;28;20020;-81
2021/12/13 00:08:10;;;;;;;17.20;8.65;;;;;;;;;;5091257;28;20115;-81
2021/12/13 00:10:36;;;;;;;;;;;;;;;;;;5123649;28;20024;-81
2021/12/13 00:13:09;;;;;;;29.85;9.25;;;;;;;;;;5122444;28;20391;-81
2021/12/13 00:15:43;;;;;;;25.77;10.27;;;;;;;;;;5104544;28;20031;-81
2021/12/13 00:18:14;;;;;;;30.40;9.10;;;;;;;;;;5122693;28;20024;-81
2021/12/13 00:20:45;;;;;;;26.40;9.20;;;;;;;;;;5122525;28;20129;-81
2021/12/13 00:23:14;;;;;;;28.75;9.75;;;;;;;;;;5084300;28;20024;-80
2021/12/13 00:25:41;;;;;;;32.42;10.02;;;;;;;;;;5083593;28;20040;-81
2021/12/13 00:28:13;;;;;;;31.42;9.75;;;;;;;;;;5082421;28;20028;-82
2021/12/13 00:31:01;;;;;;;36.40;10.55;;;;;;;;;;5086679;28;20019;-81
2021/12/13 00:33:39;;;;;;;35.42;10.43;;;;;;;;;;5114814;28;20398;-81
2021/12/13 00:36:05;;;;;;;19.38;9.15;;;;;;;;;;5082962;28;20028;-81
2021/12/13 00:38:36;;;;;;;28.90;10.00;;;;;;;;;;5102090;28;20043;-81
2021/12/13 00:41:08;;;;;;;26.70;9.73;;;;;;;;;;5083000;28;20039;-80
2021/12/13 00:43:41;;;;;;;26.35;10.27;;;;;;;;;;5082361;28;20548;-80
2021/12/13 00:46:12;;;;;;;24.67;9.90;;;;;;;;;;5100494;28;20024;-81
2021/12/13 00:48:40;;;;;;;22.88;8.50;;;;;;;;;;5100836;28;20051;-81
2021/12/13 00:51:27;;;;;;;22.52;9.13;;;;;;;;;;5101123;28;20020;-81
2021/12/13 00:53:53;;;;;;;32.90;9.65;;;;;;;;;;5083014;28;20055;-81
2021/12/13 00:56:38;;;;;;;21.95;9.35;;;;;;;;;;5082655;28;20024;-81
2021/12/13 00:59:05;;;;;;;30.77;8.77;;;;;;;;;;5101268;28;20031;-81
2021/12/13 01:01:31;;;;;;;38.70;10.32;;;;;;;;;;5082409;28;20113;-81
2021/12/13 01:03:57;;;;;;;23.02;9.70;;;;;;;;;;5100723;28;20035;-80
2021/12/13 01:06:42;;;;;;;20.73;9.07;;;;;;;;;;5082454;28;20024;-81
2021/12/13 01:09:27;;;;;;;29.00;9.90;;;;;;;;;;5099328;28;20068;-80
2021/12/13 01:11:59;;;;;;;51.58;8.60;;;;;;;;;;5112799;28;20020;-80
2021/12/13 01:14:31;;;;;;;24.98;8.18;;;;;;;;;;5082546;28;20032;-81
2021/12/13 01:17:11;;;;;;;26.42;8.20;;;;;;;;;;5100797;28;20023;-81
2021/12/13 01:19:55;;;;;;;36.58;8.77;;;;;;;;;;5102423;28;20053;-80
2021/12/13 01:22:44;;;;;;;19.67;7.85;;;;;;;;;;5101476;28;20032;-81
2021/12/13 01:25:37;;;;;;;24.63;8.55;;;;;;;;;;5101805;28;20571;-81
2021/12/13 01:28:15;;;;;;;27.35;8.40;;;;;;;;;;5101671;28;20031;-80
2021/12/13 01:30:43;;;;;;;21.67;7.85;;;;;;;;;;5105563;28;20024;-81
2021/12/13 01:33:11;;;;;;;26.23;8.05;;;;;;;;;;5121616;28;20024;-81
2021/12/13 01:35:40;;;;;;;22.83;8.15;;;;;;;;;;5125206;28;20028;-81
2021/12/13 01:38:08;;;;;;;35.97;7.22;;;;;;;;;;5126609;28;20024;-81
2021/12/13 01:40:35;;;;;;;19.40;7.35;;;;;;;;;;5126281;28;20050;-80
2021/12/13 01:43:01;;;;;;;33.97;6.93;;;;;;;;;;5125672;28;20468;-81
2021/12/13 01:45:28;;;;;;;19.45;7.90;;;;;;;;;;5126198;28;20023;-81
2021/12/13 01:47:55;;;;;;;28.63;7.32;;;;;;;;;;5105361;28;20015;-81
2021/12/13 01:50:24;;;;;;;20.55;5.75;;;;;;;;;;5106201;28;20015;-81
2021/12/13 01:52:52;;;;;;;21.58;6.80;;;;;;;;;;5123972;28;20087;-81
2021/12/13 01:55:18;;;;;;;34.45;6.85;;;;;;;;;;5124644;28;20079;-81
2021/12/13 01:57:51;;;;;;;18.73;7.65;;;;;;;;;;5122266;28;20023;-81
2021/12/13 02:00:21;;;;;;;36.22;9.13;;;;;;;;;;5085534;28;20024;-81
2021/12/13 02:02:54;;;;;;;36.25;9.27;;;;;;;;;;5104041;28;20110;-80
2021/12/13 02:05:28;;;;;;;26.42;9.10;;;;;;;;;;5104871;28;20027;-81
2021/12/13 02:07:59;;;;;;;29.00;9.23;;;;;;;;;;5104748;28;20017;-80
2021/12/13 02:10:29;;;;;;;;;;;;;;;;;;5104875;28;20012;-81
2021/12/13 02:13:01;;;;;;;23.38;8.68;;;;;;;;;;5102168;28;19949;-80
2021/12/13 02:18:16;;;;;;;25.85;9.35;;;;;;;;;;5103351;28;20057;-81
2021/12/13 02:20:45;;;;;;;23.58;8.15;;;;;;;;;;5103304;28;20032;-82
2021/12/13 02:23:11;;;;;;;27.02;7.50;;;;;;;;;;5103926;28;20224;-80
2021/12/13 02:25:46;;;;;;;20.10;9.30;;;;;;;;;;5104127;28;20028;-80
2021/12/13 02:28:19;;;;;;;27.23;9.40;;;;;;;;;;5103421;28;20024;-80
2021/12/13 02:30:48;;;;;;;43.47;10.20;;;;;;;;;;5104060;28;20028;-81
2021/12/13 02:33:17;;;;;;;30.70;10.23;;;;;;;;;;5085489;28;20396;-80
2021/12/13 02:35:45;;;;;;;25.48;10.52;;;;;;;;;;5085577;28;20096;-80
2021/12/13 02:38:13;;;;;;;24.33;9.82;;;;;;;;;;5103614;28;20091;-80
2021/12/13 02:40:39;;;;;;;92.45;10.70;;;;;;;;;;5088798;28;20055;-80
2021/12/13 02:43:06;;;;;;;18.27;9.02;;;;;;;;;;5108339;28;20045;-80
2021/12/13 02:45:42;;;;;;;28.38;10.30;;;;;;;;;;5106693;28;20036;-81
2021/12/13 02:48:17;;;;;;;53.42;10.30;;;;;;;;;;5107191;28;20384;-81
2021/12/13 02:50:46;;;;;;;23.50;8.77;;;;;;;;;;5088945;28;20024;-80
2021/12/13 02:53:13;;;;;;;20.02;8.75;;;;;;;;;;5088869;28;20052;-81
2021/12/13 02:55:40;;;;;;;47.70;9.82;;;;;;;;;;5106475;28;20032;-81
2021/12/13 02:58:08;;;;;;;25.92;8.95;;;;;;;;;;5105486;28;20101;-80
2021/12/13 03:00:34;;;;;;;20.92;9.93;;;;;;;;;;5105482;28;20024;-81
2021/12/13 03:03:02;;;;;;;19.70;8.60;;;;;;;;;;5087182;28;20120;-80
2021/12/13 03:05:30;;;;;;;19.88;8.75;;;;;;;;;;5105853;28;20016;-80
2021/12/13 03:07:59;;;;;;;21.73;9.88;;;;;;;;;;5110801;28;20016;-80
2021/12/13 03:10:27;;;;;;;25.02;8.93;;;;;;;;;;5106723;28;20196;-80
2021/12/13 03:12:53;;;;;;;26.33;9.02;;;;;;;;;;5123451;28;20050;-81
2021/12/13 03:15:22;;;;;;;156.68;10.98;;;;;;;;;;5102758;28;20080;-80
2021/12/13 03:17:50;;;;;;;18.52;8.38;;;;;;;;;;5121428;28;20036;-81
2021/12/13 03:20:16;;;;;;;18.48;8.02;;;;;;;;;;5123659;28;20034;-81
2021/12/13 03:23:01;;;;;;;21.95;7.32;;;;;;;;;;5120498;28;20051;-81
2021/12/13 03:25:53;;;;;;;23.67;7.43;;;;;;;;;;5101487;28;20050;-80
2021/12/13 03:28:23;;;;;;;13.25;7.20;;;;;;;;;;5098333;28;20032;-80
2021/12/13 03:30:58;;;;;;;40.23;7.80;;;;;;;;;;5106790;28;20099;-81
2021/12/13 03:33:32;;;;;;;13.00;5.90;;;;;;;;;;5103865;28;20028;-80
2021/12/13 03:36:00;;;;;;;48.45;6.25;;;;;;;;;;5102739;28;20050;-81
2021/12/13 03:38:31;;;;;;;23.88;7.53;;;;;;;;;;5103685;28;20093;-81
2021/12/13 03:40:59;;;;;;;23.77;6.55;;;;;;;;;;5102988;28;20004;-80
2021/12/13 03:43:27;;;;;;;35.15;7.43;;;;;;;;;;5122048;28;20023;-81
2021/12/13 03:45:56;;;;;;;33.13;6.75;;;;;;;;;;5109160;28;20049;-81
2021/12/13 03:48:24;;;;;;;42.83;6.78;;;;;;;;;;5105169;28;20038;-81
2021/12/13 03:50:52;;;;;;;19.83;7.00;;;;;;;;;;5114905;28;20076;-81
2021/12/13 03:53:20;;;;;;;51.55;7.72;;;;;;;;;;5105583;28;20055;-81
2021/12/13 03:55:49;;;;;;;72.60;7.47;;;;;;;;;;5104672;28;20089;-81
2021/12/13 03:58:18;;;;;;;116.25;8.82;;;;;;;;;;5102878;28;20024;-81
2021/12/13 04:00:47;;;;;;;22.05;6.45;;;;;;;;;;5103443;28;20027;-81
2021/12/13 04:03:15;;;;;;;29.42;6.72;;;;;;;;;;5104078;28;20031;-81
2021/12/13 04:05:41;;;;;;;125.03;9.98;;;;;;;;;;5085357;28;20413;-79
2021/12/13 04:08:08;;;;;;;44.80;8.00;;;;;;;;;;5102993;28;20024;-80
2021/12/13 04:10:37;;;;;;;198.68;10.63;;;;;;;;;;5085337;28;20016;-81
2021/12/13 04:13:10;;;;;;;42.00;8.10;;;;;;;;;;5103875;28;20035;-82
2021/12/13 04:16:03;;;;;;;151.50;9.70;;;;;;;;;;5119138;28;20019;-82
2021/12/13 04:19:06;;;;;;;33.50;8.32;;;;;;;;;;5125737;28;20027;-81
2021/12/13 04:21:34;;;;;;;89.18;9.27;;;;;;;;;;5128805;28;20048;-81
2021/12/13 04:24:01;;;;;;;36.08;7.05;;;;;;;;;;5094689;28;20024;-81
2021/12/13 04:26:29;;;;;;;78.88;8.82;;;;;;;;;;5122951;28;20107;-81
2021/12/13 04:28:56;;;;;;;102.22;9.32;;;;;;;;;;5106574;28;20027;-82
2021/12/13 04:31:24;;;;;;;58.95;8.35;;;;;;;;;;5105235;28;20082;-81
2021/12/13 04:33:53;;;;;;;69.97;8.85;;;;;;;;;;5104533;28;20027;-81
2021/12/13 04:36:25;;;;;;;34.80;8.05;;;;;;;;;;5103596;28;20036;-81
2021/12/13 04:39:00;;;;;;;83.20;8.05;;;;;;;;;;5087191;28;20077;-81
2021/12/13 04:41:35;;;;;;;34.67;6.88;;;;;;;;;;5124088;28;20547;-81
2021/12/13 04:44:06;;;;;;;23.10;7.72;;;;;;;;;;5124034;28;20043;-81
2021/12/13 04:46:33;;;;;;;28.52;7.88;;;;;;;;;;5101194;28;20132;-81
2021/12/13 04:49:01;;;;;;;91.85;8.82;;;;;;;;;;5106658;28;20024;-81
2021/12/13 04:51:29;;;;;;;22.00;7.53;;;;;;;;;;5102417;28;20028;-81
2021/12/13 04:53:58;;;;;;;89.90;8.48;;;;;;;;;;5102671;28;20024;-81
2021/12/13 04:56:27;;;;;;;47.55;7.25;;;;;;;;;;5105625;28;20383;-81
2021/12/13 04:58:54;;;;;;;66.22;7.95;;;;;;;;;;5122592;28;20050;-82
2021/12/13 05:01:21;;;;;;;67.03;7.95;;;;;;;;;;5106613;28;20451;-81
2021/12/13 05:03:55;;;;;;;51.45;7.43;;;;;;;;;;5078537;28;20107;-81
2021/12/13 05:06:23;;;;;;;82.18;7.53;;;;;;;;;;5099824;28;20619;-81
2021/12/13 05:08:53;;;;;;;57.20;7.70;;;;;;;;;;5081738;28;20028;-82
2021/12/13 05:11:19;;;;;;;142.07;7.47;;;;;;;;;;5081150;28;20032;-81
2021/12/13 05:13:52;;;;;;;18.50;6.07;;;;;;;;;;5081173;28;20551;-81
2021/12/13 05:16:20;;;;;;;97.72;6.80;;;;;;;;;;5098844;28;20028;-81
2021/12/13 05:18:51;;;;;;;60.72;5.65;;;;;;;;;;5100200;28;20092;-81
2021/12/13 05:21:34;;;;;;;19.23;5.38;;;;;;;;;;5099573;28;20024;-81
2021/12/13 05:24:02;;;;;;;37.53;5.43;;;;;;;;;;5095197;28;20162;-82
2021/12/13 05:26:28;;;;;;;66.53;6.20;;;;;;;;;;5077445;28;20050;-82
2021/12/13 05:28:54;;;;;;;49.17;5.18;;;;;;;;;;5095891;28;20025;-82
2021/12/13 05:31:23;;;;;;;45.45;5.40;;;;;;;;;;5079342;28;20020;-82
2021/12/13 05:33:55;;;;;;;29.70;3.33;;;;;;;;;;5096877;28;20461;-79
2021/12/13 05:36:39;;;;;;;36.30;4.40;;;;;;;;;;5095453;28;20054;-82
2021/12/13 05:39:08;;;;;;;6.00;2.92;;;;;;;;;;5078095;28;20333;-82
2021/12/13 05:41:34;;;;;;;51.25;4.50;;;;;;;;;;5077805;28;20020;-82
2021/12/13 05:44:03;;;;;;;29.63;3.85;;;;;;;;;;5095900;28;20028;-82
2021/12/13 05:46:38;;;;;;;53.50;4.55;;;;;;;;;;5096637;28;20334;-83
2021/12/13 05:49:06;;;;;;;14.13;4.78;;;;;;;;;;5078192;28;20016;-82
2021/12/13 05:51:32;;;;;;;28.75;5.00;;;;;;;;;;5095902;28;20025;-82
2021/12/13 05:53:58;;;;;;;45.10;5.50;;;;;;;;;;5096084;28;20028;-82
2021/12/13 05:56:26;;;;;;;60.22;5.50;;;;;;;;;;5077696;28;20032;-82
2021/12/13 05:58:54;;;;;;;52.05;4.78;;;;;;;;;;5096547;28;20032;-82
2021/12/13 06:01:24;;;;;;;20.45;4.05;;;;;;;;;;5096266;28;20077;-82
2021/12/13 06:03:56;;;;;;;41.13;4.55;;;;;;;;;;5077730;28;20024;-82
2021/12/13 06:06:28;;;;;;;52.65;4.72;;;;;;;;;;5095118;28;20035;-83
2021/12/13 06:08:56;;;;;;;35.25;4.13;;;;;;;;;;5087590;28;20028;-85
2021/12/13 06:11:32;;;;;;;10.27;4.20;;;;;;;;;;5127175;28;20028;-85
2021/12/13 06:13:59;;;;;;;40.88;4.38;;;;;;;;;;5124584;28;20004;-85
2021/12/13 06:16:37;;;;;;;48.78;4.32;;;;;;;;;;5127760;28;20132;-84
2021/12/13 06:19:09;;;;;;;39.10;3.85;;;;;;;;;;5122807;28;20016;-85
2021/12/13 06:21:38;;;;;;;45.75;3.88;;;;;;;;;;5126929;28;20028;-84
2021/12/13 06:24:04;;;;;;;28.75;4.28;;;;;;;;;;5130313;28;20063;-86
2021/12/13 06:26:31;;;;;;;10.80;3.53;;;;;;;;;;5109719;28;20039;-84
2021/12/13 06:28:59;;;;;;;16.77;3.35;;;;;;;;;;5103535;28;20039;-85
2021/12/13 06:31:34;;;;;;;31.85;3.78;;;;;;;;;;5108087;28;20053;-84
2021/12/13 06:34:02;;;;;;;15.10;3.65;;;;;;;;;;5121171;28;20020;-84
2021/12/13 06:36:37;;;;;;;14.57;3.40;;;;;;;;;;5119142;28;20012;-84
2021/12/13 06:39:07;;;;;;;26.33;4.32;;;;;;;;;;5118850;28;20084;-83
2021/12/13 06:41:38;;;;;;;61.38;4.40;;;;;;;;;;5119353;28;20027;-82
2021/12/13 06:44:17;;;;;;;80.00;4.97;;;;;;;;;;5100423;28;20043;-83
2021/12/13 06:46:52;;;;;;;18.90;4.30;;;;;;;;;;5108538;28;20020;-82
2021/12/13 06:49:24;;;;;;;18.20;3.75;;;;;;;;;;5115674;28;20024;-82
2021/12/13 06:51:50;;;;;;;51.03;5.00;;;;;;;;;;5105671;28;20095;-82
2021/12/13 06:54:18;;;;;;;83.32;5.40;;;;;;;;;;5110181;28;20565;-82
2021/12/13 06:56:45;;;;;;;27.63;3.72;;;;;;;;;;5084923;28;20067;-82
2021/12/13 06:59:18;;;;;;;7.95;3.85;;;;;;;;;;5110355;28;20069;-82
2021/12/13 07:01:55;;;;;;;27.40;4.78;;;;;;;;;;5117183;28;20011;-82
2021/12/13 07:04:21;;;;;;;16.67;3.92;;;;;;;;;;5122732;28;20100;-83
2021/12/13 07:06:47;;;;;;;18.90;3.42;;;;;;;;;;5089622;28;20024;-83
2021/12/13 07:09:19;;;;;;;19.55;3.45;;;;;;;;;;5084594;28;20043;-83
2021/12/13 07:11:45;;;;;;;16.92;4.22;;;;;;;;;;5078627;28;20020;-82
2021/12/13 07:14:44;;;;;;;35.67;4.68;;;;;;;;;;5096852;28;20038;-83
2021/12/13 07:17:19;;;;;;;88.75;5.28;;;;;;;;;;5074533;28;20032;-82
2021/12/13 07:20:06;;;;;;;25.08;3.92;;;;;;;;;;5111825;28;20028;-82
2021/12/13 07:22:32;;;;;;;100.95;6.20;;;;;;;;;;5049370;28;20110;-82
2021/12/13 07:25:36;;;;;;;70.60;5.45;;;;;;;;;;5118809;28;20503;-82
2021/12/13 07:28:04;;;;;;;32.85;4.93;;;;;;;;;;4996387;28;20081;-83
2021/12/13 07:30:31;;;;;;;28.63;4.28;;;;;;;;;;5080703;28;20129;-83
2021/12/13 07:33:01;;;;;;;21.38;5.35;;;;;;;;;;5115539;28;20030;-82
2021/12/13 07:35:58;;;;;;;15.90;4.50;;;;;;;;;;5115664;28;20054;-83
2021/12/13 07:38:30;;;;;;;26.63;4.55;;;;;;;;;;5096903;28;20073;-83
2021/12/13 07:41:27;;;;;;;139.15;5.82;;;;;;;;;;5123236;28;20159;-84
2021/12/13 07:43:54;;;;;;;64.63;5.15;;;;;;;;;;5100088;28;20092;-84
2021/12/13 07:46:23;;;;;;;55.30;5.45;;;;;;;;;;5124187;28;20030;-85
2021/12/13 07:48:52;;;;;;;55.60;5.45;;;;;;;;;;5107702;28;20032;-84
2021/12/13 07:54:15;;;;;;;160.35;7.00;;;;;;;;;;5125215;28;20099;-85
2021/12/13 07:56:46;;;;;;;15.40;3.70;;;;;;;;;;5108349;28;20058;-84
2021/12/13 07:59:33;;;;;;;166.82;7.22;;;;;;;;;;5106850;28;20048;-83
2021/12/13 08:05:18;;;;;;;214.73;6.60;;;;;;;;;;5117926;28;20020;-85
2021/12/13 08:07:46;;;;;;;175.73;7.78;;;;;;;;;;5110351;28;20024;-84
2021/12/13 08:10:31;;;;;;;137.80;7.72;;;;;;;;;;5112070;28;20023;-85
2021/12/13 08:13:18;;;;;;;154.10;7.43;;;;;;;;;;5111960;28;20008;-85
2021/12/13 08:15:45;;;;;;;84.80;5.38;;;;;;;;;;5124345;28;20042;-85
2021/12/13 08:18:22;;;;;;;171.60;6.57;;;;;;;;;;5129875;28;20058;-85
2021/12/13 08:20:51;;;;;;;86.50;4.70;;;;;;;;;;5120657;28;20023;-83
2021/12/13 08:23:19;;;;;;;118.57;5.60;;;;;;;;;;5109187;28;20043;-84
2021/12/13 08:25:46;;;;;;;93.13;5.22;;;;;;;;;;5106836;28;20033;-84
2021/12/13 08:28:16;;;;;;;24.88;4.65;;;;;;;;;;5109843;28;20103;-84
2021/12/13 08:30:47;;;;;;;54.00;5.15;;;;;;;;;;5104960;28;20031;-84
2021/12/13 08:33:13;;;;;;;74.78;5.22;;;;;;;;;;5100725;28;20020;-84
2021/12/13 08:35:50;;;;;;;131.57;5.95;;;;;;;;;;5123358;28;20066;-82
2021/12/13 08:38:35;;;;;;;101.75;6.10;;;;;;;;;;5115022;28;20087;-82
2021/12/13 08:41:18;;;;;;;54.08;4.20;;;;;;;;;;5134444;28;20034;-83
2021/12/13 08:43:54;;;;;;;18.88;4.80;;;;;;;;;;5094808;28;20052;-83
2021/12/13 08:46:40;;;;;;;75.28;5.22;;;;;;;;;;5103715;28;20037;-82
2021/12/13 08:49:35;;;;;;;36.42;5.30;;;;;;;;;;5128515;28;20556;-82
2021/12/13 08:52:04;;;;;;;93.82;4.78;;;;;;;;;;5096334;28;20031;-82
2021/12/13 08:54:56;;;;;;;115.68;5.60;;;;;;;;;;5094534;28;20028;-82
2021/12/13 08:57:41;;;;;;;42.47;5.18;;;;;;;;;;5071542;28;20040;-81
2021/12/13 09:00:27;;;;;;;66.82;5.70;;;;;;;;;;5094251;28;20032;-82
2021/12/13 09:02:56;;;;;;;84.45;5.15;;;;;;;;;;5031678;28;20091;-82
2021/12/13 09:05:33;;;;;;;146.70;5.57;;;;;;;;;;5060481;28;20031;-83
2021/12/13 09:08:01;;;;;;;48.03;4.32;;;;;;;;;;5099163;28;20032;-82
2021/12/13 09:10:49;;;;;;;41.28;3.85;;;;;;;;;;5099497;28;20020;-83
2021/12/13 09:13:16;;;;;;;40.25;3.65;;;;;;;;;;5116396;28;20074;-84
2021/12/13 09:15:43;;;;;;;107.35;5.13;;;;;;;;;;5101995;28;20497;-82
2021/12/13 09:18:10;;;;;;;127.50;4.50;;;;;;;;;;5120561;28;20024;-83
2021/12/13 09:20:39;;;;;;;102.78;4.80;;;;;;;;;;5121464;28;20030;-83
2021/12/13 09:23:16;;;;;;;104.57;4.45;;;;;;;;;;5121307;28;20035;-83
2021/12/13 09:25:45;;;;;;;81.05;4.22;;;;;;;;;;5102321;28;20084;-83
2021/12/13 09:28:23;;;;;;;119.85;5.15;;;;;;;;;;5119746;28;20051;-83
2021/12/13 09:31:01;;;;;;;71.18;4.05;;;;;;;;;;5121724;28;20103;-83
2021/12/13 09:33:34;;;;;;;31.90;3.50;;;;;;;;;;5097132;28;20026;-83
2021/12/13 09:36:03;;;;;;;93.45;4.22;;;;;;;;;;5095950;28;20031;-81
2021/12/13 09:38:35;;;;;;;41.25;3.28;;;;;;;;;;5095397;28;20015;-82
2021/12/13 09:41:01;;;;;;;68.22;3.95;;;;;;;;;;5114836;28;20024;-82
2021/12/13 09:43:42;;;;;;;51.42;3.17;;;;;;;;;;5114779;28;20030;-83
2021/12/13 09:46:08;;;;;;;45.80;2.78;;;;;;;;;;5088816;28;20016;-82
2021/12/13 09:48:41;;;;;;;22.20;2.70;;;;;;;;;;5093784;28;20020;-82
2021/12/13 09:51:14;;;;;;;27.85;2.60;;;;;;;;;;5097227;28;20054;-82
2021/12/13 09:53:40;;;;;;;4.88;2.15;;;;;;;;;;5083887;28;20012;-82
2021/12/13 09:56:09;;;;;;;27.95;2.50;;;;;;;;;;5115879;28;20064;-82
2021/12/13 09:58:47;;;;;;;9.52;2.22;;;;;;;;;;5137796;28;20016;-84
2021/12/13 10:01:16;;;;;;;10.70;2.50;;;;;;;;;;5113357;28;20031;-83
2021/12/13 10:03:45;;;;;;;18.30;3.03;;;;;;;;;;5116699;28;20385;-83
2021/12/13 10:06:11;;;;;;;9.57;2.63;;;;;;;;;;5085759;28;20078;-83
2021/12/13 10:08:43;;;;;;;29.73;4.03;;;;;;;;;;5117164;28;20024;-82
2021/12/13 10:11:21;;;;;;;55.60;2.90;;;;;;;;;;5107561;28;20106;-82
2021/12/13 10:13:47;;;;;;;45.90;2.90;;;;;;;;;;5111010;28;20079;-83
2021/12/13 10:16:18;;;;;;;60.33;3.05;;;;;;;;;;5091436;28;20031;-83
2021/12/13 10:18:44;;;;;;;;;;;;;;;;;;5112784;28;20028;-82
2021/12/13 10:21:12;;;;;;;5.75;1.92;;;;;;;;;;5082918;28;20402;-83
2021/12/13 10:23:41;;;;;;;3.63;1.33;;;;;;;;;;5105320;28;20087;-82
2021/12/13 10:26:09;;;;;;;29.48;2.00;;;;;;;;;;5098819;28;20031;-82
2021/12/13 10:28:38;;;;;;;37.80;2.15;;;;;;;;;;5095077;28;20500;-83
2021/12/13 10:31:24;;;;;;;55.75;2.65;;;;;;;;;;5089347;28;20035;-82
2021/12/13 10:33:50;;;;;;;5.82;1.92;;;;;;;;;;5086607;28;20087;-83
2021/12/13 10:36:17;;;;;;;14.52;2.28;;;;;;;;;;5103809;28;20034;-83
2021/12/13 10:38:48;;;;;;;27.38;2.90;;;;;;;;;;5084981;28;20027;-83
2021/12/13 10:41:21;;;;;;;9.40;2.45;;;;;;;;;;5102826;28;20143;-82
2021/12/13 10:43:52;;;;;;;6.82;2.55;;;;;;;;;;5114460;28;20023;-83
2021/12/13 10:46:21;;;;;;;7.50;2.58;;;;;;;;;;5123013;28;20020;-83
2021/12/13 10:48:49;;;;;;;8.25;3.28;;;;;;;;;;5104241;28;20024;-83
2021/12/13 10:51:20;;;;;;;7.18;3.40;;;;;;;;;;5122309;28;20098;-83
2021/12/13 10:53:52;;;;;;;;;;;;;;;;;;5104107;28;20039;-83
2021/12/13 10:56:36;;;;;;;7.82;2.60;;;;;;;;;;5105302;28;19998;-82
2021/12/13 10:59:06;;;;;;;6.35;3.33;;;;;;;;;;5122220;28;20033;-84
2021/12/13 11:01:37;;;;;;;2.65;2.20;;;;;;;;;;5104420;28;20030;-83
2021/12/13 11:04:06;;;;;;;2.78;2.33;;;;;;;;;;5100964;28;20032;-83
2021/12/13 11:06:33;;;;;;;4.88;2.88;;;;;;;;;;5113502;28;20012;-84
2021/12/13 11:08:59;;;;;;;3.92;2.42;;;;;;;;;;5095325;28;20028;-83
2021/12/13 11:11:30;;;;;;;4.38;2.30;;;;;;;;;;5087057;28;20020;-84
2021/12/13 11:13:59;;;;;;;3.28;1.77;;;;;;;;;;5105110;28;20089;-83
2021/12/13 11:16:29;;;;;;;2.20;1.70;;;;;;;;;;5099178;28;20035;-83
2021/12/13 11:18:55;;;;;;;4.50;1.90;;;;;;;;;;5080752;28;20623;-82
2021/12/13 11:21:23;;;;;;;1.75;1.50;;;;;;;;;;5099583;28;20097;-82
2021/12/13 11:23:49;;;;;;;1.75;1.63;;;;;;;;;;5098311;28;20028;-83
2021/12/13 11:26:20;;;;;;;1.30;1.17;;;;;;;;;;5080333;28;20035;-82
2021/12/13 11:28:46;;;;;;;1.40;1.30;;;;;;;;;;5079957;28;20024;-83
2021/12/13 11:31:23;;;;;;;3.92;1.50;;;;;;;;;;5087412;28;20037;-82
2021/12/13 11:34:01;;;;;;;2.78;1.70;;;;;;;;;;5120204;28;20020;-82
2021/12/13 11:36:40;;;;;;;1.85;1.60;;;;;;;;;;5084353;28;20088;-82
2021/12/13 11:39:24;;;;;;;2.30;1.63;;;;;;;;;;5101085;28;20504;-82
2021/12/13 11:41:55;;;;;;;2.58;1.65;;;;;;;;;;5099116;28;20032;-82
2021/12/13 11:44:24;;;;;;;1.98;1.77;;;;;;;;;;5102654;28;20027;-84
2021/12/13 11:46:56;;;;;;;2.95;2.00;;;;;;;;;;5100590;28;20020;-83
2021/12/13 11:49:41;;;;;;;4.10;2.30;;;;;;;;;;5082035;28;20054;-82
2021/12/13 11:52:09;;;;;;;2.30;1.60;;;;;;;;;;5101678;28;20035;-83
2021/12/13 11:54:54;;;;;;;2.75;2.10;;;;;;;;;;5099036;28;20028;-83
2021/12/13 11:57:22;;;;;;;2.15;1.65;;;;;;;;;;5099391;28;20016;-83
2021/12/13 11:59:50;;;;;;;1.88;1.50;;;;;;;;;;5082023;28;20024;-83
2021/12/13 12:02:19;;;;;;;2.97;2.20;;;;;;;;;;5099952;28;20032;-83
2021/12/13 12:05:07;;;;;;;2.00;1.80;;;;;;;;;;5081280;28;20469;-83
2021/12/13 12:07:33;;;;;;;8.32;4.53;;;;;;;;;;5099894;28;20024;-83
2021/12/13 12:10:02;;;;;;;3.40;2.22;;;;;;;;;;5081351;28;20031;-83
2021/12/13 12:12:34;;;;;;;2.92;2.13;;;;;;;;;;5100914;28;20020;-82
2021/12/13 12:15:02;;;;;;;2.53;1.90;;;;;;;;;;5118556;28;20019;-83
2021/12/13 12:17:29;;;;;;;1.92;1.70;;;;;;;;;;5118729;28;20026;-84
2021/12/13 12:19:56;;;;;;;2.13;1.40;;;;;;;;;;5099993;28;20024;-84
2021/12/13 12:22:23;;;;;;;1.33;1.20;;;;;;;;;;5100797;28;20024;-83
2021/12/13 12:24:54;;;;;;;2.00;1.30;;;;;;;;;;5118526;28;20045;-83
2021/12/13 12:27:20;;;;;;;;;;;;;;;;;;5119251;28;20039;-83
2021/12/13 12:29:51;;;;;;;1.45;1.20;;;;;;;;;;5118628;28;19908;-83
2021/12/13 12:32:20;;;;;;;1.10;1.00;;;;;;;;;;5100117;28;20073;-83
2021/12/13 12:34:46;;;;;;;1.45;1.30;;;;;;;;;;5109125;28;20046;-84
2021/12/13 12:37:20;;;;;;;1.42;1.30;;;;;;;;;;5118685;28;20424;-83
2021/12/13 12:40:04;;;;;;;1.90;1.30;;;;;;;;;;5117677;28;20023;-83
2021/12/13 12:42:30;;;;;;;1.15;1.05;;;;;;;;;;5100801;28;20110;-83
2021/12/13 12:44:56;;;;;;;1.50;0.98;;;;;;;;;;5114821;28;20061;-83
2021/12/13 12:47:34;;;;;;;1.73;1.50;;;;;;;;;;5077917;28;20020;-82
2021/12/13 12:50:15;;;;;;;1.83;1.20;;;;;;;;;;5099115;28;20493;-82
2021/12/13 12:52:52;;;;;;;1.35;1.17;;;;;;;;;;5099078;28;20523;-82
2021/12/13 12:55:20;;;;;;;1.20;1.10;;;;;;;;;;5097891;28;20495;-80
2021/12/13 12:57:46;;;;;;;1.38;1.27;;;;;;;;;;5099028;28;20024;-81
2021/12/13 13:00:12;;;;;;;1.63;1.50;;;;;;;;;;5078293;28;20024;-81
2021/12/13 13:02:38;;;;;;;1.92;1.40;;;;;;;;;;5110387;28;20020;-81
2021/12/13 13:05:07;;;;;;;1.70;1.42;;;;;;;;;;5111276;28;20027;-81
2021/12/13 13:07:35;;;;;;;3.35;1.55;;;;;;;;;;5111486;28;20016;-81
2021/12/13 13:10:03;;;;;;;2.15;1.65;;;;;;;;;;5107883;28;20099;-81
2021/12/13 13:12:30;;;;;;;2.88;2.15;;;;;;;;;;5085849;28;20042;-82
2021/12/13 13:14:56;;;;;;;2.38;2.10;;;;;;;;;;5122879;28;20081;-82
2021/12/13 13:17:24;;;;;;;1.70;1.60;;;;;;;;;;5103773;28;20059;-81
2021/12/13 13:19:51;;;;;;;2.88;2.10;;;;;;;;;;5102695;28;20050;-81
2021/12/13 13:22:20;;;;;;;2.67;1.90;;;;;;;;;;5122689;28;20030;-81
2021/12/13 13:24:50;;;;;;;2.10;1.55;;;;;;;;;;5122526;28;20066;-81
2021/12/13 13:27:16;;;;;;;1.83;1.55;;;;;;;;;;5121235;28;20028;-83
2021/12/13 13:29:42;;;;;;;1.90;1.58;;;;;;;;;;5123029;28;20027;-81
2021/12/13 13:32:12;;;;;;;2.13;1.58;;;;;;;;;;5106217;28;20046;-81
2021/12/13 13:34:56;;;;;;;1.48;1.30;;;;;;;;;;5097645;28;20017;-81
2021/12/13 13:37:23;;;;;;;1.90;1.70;;;;;;;;;;5085271;28;20028;-81
2021/12/13 13:39:51;;;;;;;2.90;1.27;;;;;;;;;;5103991;28;20392;-81
2021/12/13 13:42:21;;;;;;;1.15;1.02;;;;;;;;;;5105226;28;20088;-81
2021/12/13 13:44:49;;;;;;;1.30;1.20;;;;;;;;;;5103998;28;20103;-81
2021/12/13 13:47:18;;;;;;;1.27;1.17;;;;;;;;;;5085729;28;20468;-81
2021/12/13 13:49:45;;;;;;;1.80;1.38;;;;;;;;;;5102591;28;20020;-81
2021/12/13 13:52:20;;;;;;;1.50;1.38;;;;;;;;;;5103671;28;20047;-81
2021/12/13 13:54:48;;;;;;;2.10;1.45;;;;;;;;;;5103620;28;20024;-81
2021/12/13 13:57:15;;;;;;;1.17;1.08;;;;;;;;;;5104264;28;20039;-81
2021/12/13 13:59:42;;;;;;;1.30;1.20;;;;;;;;;;5106409;28;20050;-81
2021/12/13 14:02:09;;;;;;;2.38;1.50;;;;;;;;;;5103939;28;20520;-81
2021/12/13 14:04:40;;;;;;;0.80;0.80;;;;;;;;;;5102183;28;20024;-81
2021/12/13 14:07:14;;;;;;;1.02;0.98;;;;;;;;;;5103727;28;20024;-82
2021/12/13 14:09:42;;;;;;;1.15;1.05;;;;;;;;;;5085071;28;20035;-83
2021/12/13 14:12:31;;;;;;;1.80;0.93;;;;;;;;;;5103079;28;20427;-82
2021/12/13 14:15:00;;;;;;;1.13;1.02;;;;;;;;;;5099088;28;20492;-82
2021/12/13 14:17:35;;;;;;;0.90;0.90;;;;;;;;;;5107166;28;20034;-82
2021/12/13 14:20:14;;;;;;;1.50;1.33;;;;;;;;;;5123204;28;20016;-83
2021/12/13 14:22:40;;;;;;;3.25;1.60;;;;;;;;;;5094531;28;20020;-83
2021/12/13 14:25:06;;;;;;;1.67;1.58;;;;;;;;;;5120184;28;20007;-82
2021/12/13 14:27:33;;;;;;;2.58;1.63;;;;;;;;;;5101580;28;20071;-84
2021/12/13 14:30:20;;;;;;;4.10;1.50;;;;;;;;;;5112924;28;20032;-82
2021/12/13 14:32:47;;;;;;;2.25;1.75;;;;;;;;;;5114247;28;20052;-83
2021/12/13 14:35:17;;;;;;;4.90;1.90;;;;;;;;;;5117537;28;20484;-80
2021/12/13 14:37:44;;;;;;;3.38;1.65;;;;;;;;;;5124491;28;20032;-81
2021/12/13 14:40:11;;;;;;;2.00;1.80;;;;;;;;;;5106183;28;20036;-80
2021/12/13 14:42:37;;;;;;;1.60;1.50;;;;;;;;;;5103164;28;20024;-80
2021/12/13 14:45:06;;;;;;;2.45;1.90;;;;;;;;;;5103436;28;20043;-80
2021/12/13 14:47:37;;;;;;;4.03;2.00;;;;;;;;;;5093411;28;20027;-80
2021/12/13 14:50:17;;;;;;;3.63;2.97;;;;;;;;;;5123562;28;20066;-81
2021/12/13 14:52:49;;;;;;;2.17;1.75;;;;;;;;;;5124515;28;20035;-81
2021/12/13 14:55:18;;;;;;;2.33;2.03;;;;;;;;;;5083644;28;20522;-82
2021/12/13 14:57:50;;;;;;;2.30;2.00;;;;;;;;;;5084024;28;20031;-82
2021/12/13 15:00:18;;;;;;;1.77;1.67;;;;;;;;;;5083836;28;20100;-82
2021/12/13 15:02:48;;;;;;;1.70;1.60;;;;;;;;;;5084109;28;20393;-82
2021/12/13 15:05:18;;;;;;;2.05;1.65;;;;;;;;;;5108969;28;20484;-82
2021/12/13 15:07:44;;;;;;;2.22;1.63;;;;;;;;;;5122924;28;20016;-82